createdAt,value
2023-04-02T00:02:55.461Z,0.87
2023-04-02T00:07:31.157Z,0.90
2023-04-02T00:11:38.772Z,1.20
2023-04-02T00:15:43.903Z,1.20
2023-04-02T00:20:07.010Z,1.10
2023-04-02T00:24:16.011Z,1.30
2023-04-02T00:28:27.213Z,1.10
2023-04-02T00:32:32.980Z,1.67
2023-04-02T00:36:35.512Z,1.43
2023-04-02T00:40:39.531Z,1.20
2023-04-02T00:44:45.415Z,1.50
2023-04-02T00:49:09.818Z,1.60
2023-04-02T00:53:22.065Z,1.87
2023-04-02T00:57:26.415Z,1.43
2023-04-02T01:01:36.791Z,1.47
2023-04-02T01:05:39.034Z,1.50
2023-04-02T01:09:56.225Z,1.50
2023-04-02T01:14:19.961Z,1.53
2023-04-02T01:18:34.221Z,1.40
2023-04-02T01:22:55.014Z,1.47
2023-04-02T01:27:05.400Z,1.30
2023-04-02T01:31:07.870Z,1.47
2023-04-02T01:35:10.615Z,1.20
2023-04-02T01:39:32.357Z,1.00
2023-04-02T01:44:12.164Z,1.43
2023-04-02T01:48:20.057Z,1.30
2023-04-02T01:52:38.998Z,1.33
2023-04-02T01:56:42.527Z,1.30
2023-04-02T02:00:59.789Z,1.23
2023-04-02T02:05:02.048Z,0.97
2023-04-02T02:09:08.423Z,1.10
2023-04-02T02:13:15.952Z,0.90
2023-04-02T02:17:24.172Z,1.00
2023-04-02T02:21:32.243Z,0.90
2023-04-02T02:25:36.169Z,1.00
2023-04-02T02:29:42.461Z,0.93
2023-04-02T02:33:51.098Z,0.93
2023-04-02T02:38:34.433Z,0.90
2023-04-02T02:43:02.054Z,1.10
2023-04-02T02:47:11.843Z,1.33
2023-04-02T02:51:31.884Z,0.83
2023-04-02T02:55:37.404Z,1.00
2023-04-02T02:59:46.939Z,1.10
2023-04-02T03:03:52.917Z,1.10
2023-04-02T03:07:58.091Z,1.10
2023-04-02T03:12:37.943Z,1.03
2023-04-02T03:16:49.137Z,0.97
2023-04-02T03:20:53.539Z,0.80
2023-04-02T03:25:09.792Z,0.90
2023-04-02T03:29:27.302Z,0.90
2023-04-02T03:33:33.057Z,0.80
2023-04-02T03:37:46.335Z,0.80
2023-04-02T03:41:53.233Z,0.90
2023-04-02T03:46:24.906Z,0.90
2023-04-02T03:50:51.507Z,0.90
2023-04-02T03:55:00.718Z,1.07
2023-04-02T03:59:38.607Z,1.00
2023-04-02T04:03:51.159Z,1.10
2023-04-02T04:07:57.263Z,1.00
2023-04-02T04:12:08.288Z,1.17
2023-04-02T04:16:21.868Z,0.90
2023-04-02T04:20:26.065Z,0.80
2023-04-02T04:24:29.254Z,1.03
2023-04-02T04:28:38.534Z,0.80
2023-04-02T04:32:58.446Z,1.03
2023-04-02T04:37:07.717Z,1.23
2023-04-02T04:41:21.386Z,1.30
2023-04-02T04:45:31.165Z,1.10
2023-04-02T04:49:56.943Z,1.40
2023-04-02T04:54:01.233Z,1.80
2023-04-02T04:58:23.678Z,1.67
2023-04-02T05:02:33.849Z,1.70
2023-04-02T05:06:39.099Z,1.57
2023-04-02T05:10:53.140Z,1.13
2023-04-02T05:15:21.027Z,1.30
2023-04-02T05:19:38.976Z,1.10
2023-04-02T05:24:19.854Z,1.10
2023-04-02T05:28:31.255Z,1.50
2023-04-02T05:32:40.801Z,1.77
2023-04-02T05:36:46.809Z,1.77
2023-04-02T05:40:58.438Z,1.40
2023-04-02T05:45:13.539Z,1.27
2023-04-02T05:49:37.136Z,1.37
2023-04-02T05:53:51.401Z,1.90
2023-04-02T05:58:29.464Z,2.30
2023-04-02T06:03:00.000Z,5.20
2023-04-02T06:07:12.428Z,2.77
2023-04-02T06:11:30.338Z,2.50
2023-04-02T06:15:36.555Z,1.90
2023-04-02T06:19:45.801Z,1.57
2023-04-02T06:24:03.638Z,1.80
2023-04-02T06:28:16.094Z,1.47
2023-04-02T06:32:26.909Z,1.67
2023-04-02T06:36:29.543Z,1.97
2023-04-02T06:40:42.170Z,2.17
2023-04-02T06:44:59.414Z,3.30
2023-04-02T06:49:21.135Z,2.70
2023-04-02T06:53:29.425Z,2.10
2023-04-02T06:57:35.601Z,1.20
2023-04-02T07:01:43.920Z,1.90
2023-04-02T07:05:46.156Z,1.40
2023-04-02T07:09:48.506Z,3.10
2023-04-02T07:13:51.236Z,3.40
2023-04-02T07:17:57.451Z,1.30
2023-04-02T07:21:59.695Z,1.87
2023-04-02T07:26:09.427Z,1.80
2023-04-02T07:30:11.450Z,1.70
2023-04-02T07:34:13.549Z,1.80
2023-04-02T07:38:15.523Z,1.10
2023-04-02T07:42:17.586Z,1.40
2023-04-02T07:46:20.298Z,1.40
2023-04-02T07:50:22.860Z,1.70
2023-04-02T07:54:24.976Z,1.33
2023-04-02T07:58:29.649Z,1.20
2023-04-02T08:02:31.658Z,1.13
2023-04-02T08:06:33.773Z,1.33
2023-04-02T08:10:35.758Z,1.20
2023-04-02T08:14:37.819Z,1.30
2023-04-02T08:18:40.218Z,1.20
2023-04-02T08:22:42.132Z,1.10
2023-04-02T08:26:45.453Z,1.13
2023-04-02T08:30:52.563Z,0.97
2023-04-02T08:34:54.690Z,1.10
2023-04-02T08:38:56.761Z,1.17
2023-04-02T08:43:37.555Z,1.03
2023-04-02T08:47:41.195Z,1.03
2023-04-02T08:51:45.707Z,0.87
2023-04-02T08:56:17.659Z,0.80
2023-04-02T09:00:22.374Z,0.68
2023-04-02T09:04:27.042Z,1.10
2023-04-02T09:08:31.378Z,1.00
2023-04-02T09:12:33.291Z,1.00
2023-04-02T09:16:46.390Z,0.90
2023-04-02T09:20:49.479Z,0.90
2023-04-02T09:25:04.278Z,0.83
2023-04-02T09:29:11.937Z,0.90
2023-04-02T09:33:13.951Z,0.70
2023-04-02T09:37:22.987Z,0.93
2023-04-02T09:41:29.609Z,0.90
2023-04-02T09:45:31.609Z,0.70
2023-04-02T09:49:36.638Z,0.97
2023-04-02T09:53:51.134Z,0.80
2023-04-02T09:58:12.546Z,1.00
2023-04-02T10:02:28.597Z,0.70
2023-04-02T10:06:31.850Z,0.83
2023-04-02T10:10:43.331Z,0.90
2023-04-02T10:14:49.137Z,0.80
2023-04-02T10:18:57.018Z,0.77
2023-04-02T10:22:58.937Z,1.10
2023-04-02T10:27:17.642Z,0.90
2023-04-02T10:31:47.384Z,0.70
2023-04-02T10:36:11.740Z,1.20
2023-04-02T10:40:24.508Z,0.90
2023-04-02T10:44:42.965Z,0.80
2023-04-02T10:48:51.995Z,0.80
2023-04-02T10:53:17.863Z,0.70
2023-04-02T10:57:38.990Z,0.67
2023-04-02T11:01:43.256Z,0.93
2023-04-02T11:05:58.348Z,0.68
2023-04-02T11:10:01.984Z,0.60
2023-04-02T11:14:15.843Z,0.50
2023-04-02T11:18:35.861Z,0.70
2023-04-02T11:22:37.824Z,0.40
2023-04-02T11:26:47.388Z,0.50
2023-04-02T11:30:49.721Z,0.90
2023-04-02T11:35:03.484Z,0.80
2023-04-02T11:39:16.938Z,0.50
2023-04-02T11:43:35.348Z,0.80
2023-04-02T11:47:37.234Z,0.70
2023-04-02T11:51:39.228Z,0.50
2023-04-02T11:55:46.053Z,0.70
2023-04-02T12:00:13.229Z,0.93
2023-04-02T12:04:30.715Z,0.70
2023-04-02T12:09:05.900Z,1.33
2023-04-02T12:13:18.761Z,0.90
2023-04-02T12:17:37.028Z,2.27
2023-04-02T12:21:39.244Z,0.70
2023-04-02T12:25:41.312Z,0.80
2023-04-02T12:29:43.293Z,1.83
2023-04-02T12:33:45.796Z,2.85
2023-04-02T12:37:52.957Z,3.03
2023-04-02T12:41:55.358Z,1.40
2023-04-02T12:46:08.842Z,0.73
2023-04-02T12:50:15.341Z,0.93
2023-04-02T12:54:18.449Z,0.90
2023-04-02T12:58:28.133Z,3.97
2023-04-02T13:02:32.984Z,1.17
2023-04-02T13:06:36.499Z,0.70
2023-04-02T13:10:38.621Z,3.97
2023-04-02T13:14:40.773Z,0.60
2023-04-02T13:18:44.871Z,0.90
2023-04-02T13:22:46.856Z,0.80
2023-04-02T13:26:50.347Z,0.80
2023-04-02T13:30:52.159Z,0.80
2023-04-02T13:34:54.137Z,1.20
2023-04-02T13:38:56.320Z,2.20
2023-04-02T13:42:58.369Z,16.00
2023-04-02T13:47:00.684Z,0.80
2023-04-02T13:51:02.900Z,0.70
2023-04-02T13:55:05.582Z,1.40
2023-04-02T13:59:07.580Z,0.90
2023-04-02T14:03:24.272Z,1.27
2023-04-02T14:07:38.275Z,0.60
2023-04-02T14:11:56.718Z,1.00
2023-04-02T14:16:17.014Z,0.97
2023-04-02T14:20:36.486Z,3.10
2023-04-02T14:25:29.990Z,5.90
2023-04-02T14:29:35.933Z,1.00
2023-04-02T14:33:57.604Z,2.87
2023-04-02T14:38:17.928Z,2.20
2023-04-02T14:42:42.353Z,1.93
2023-04-02T14:46:44.358Z,2.20
2023-04-02T14:50:46.951Z,2.90
2023-04-02T14:54:52.164Z,3.07
2023-04-02T14:59:15.605Z,3.70
2023-04-02T15:03:27.838Z,3.23
2023-04-02T15:07:38.935Z,3.60
2023-04-02T15:11:49.380Z,3.40
2023-04-02T15:16:11.343Z,3.50
2023-04-02T15:20:17.583Z,2.57
2023-04-02T15:24:41.070Z,3.10
2023-04-02T15:29:29.036Z,2.47
2023-04-02T15:33:37.674Z,2.43
2023-04-02T15:38:06.650Z,2.20
2023-04-02T15:42:17.806Z,2.10
2023-04-02T15:46:50.771Z,2.30
2023-04-02T15:51:22.841Z,3.00
2023-04-02T15:55:31.008Z,2.60
2023-04-02T15:59:42.482Z,3.23
2023-04-02T16:03:53.506Z,2.80
2023-04-02T16:08:20.051Z,4.17
2023-04-02T16:12:21.962Z,2.90
2023-04-02T16:16:34.707Z,2.30
2023-04-02T16:20:41.634Z,2.47
2023-04-02T16:24:43.695Z,2.70
2023-04-02T16:28:45.755Z,2.60
2023-04-02T16:32:59.923Z,4.33
2023-04-02T16:37:21.631Z,2.90
2023-04-02T16:41:33.247Z,3.10
2023-04-02T16:45:44.140Z,5.37
2023-04-02T16:49:52.557Z,3.33
2023-04-02T16:54:04.746Z,2.93
2023-04-02T16:58:28.299Z,2.90
2023-04-02T17:02:51.902Z,2.43
2023-04-02T17:07:27.265Z,2.40
2023-04-02T17:11:57.359Z,2.87
2023-04-02T17:16:21.846Z,2.87
2023-04-02T17:20:25.545Z,3.20
2023-04-02T17:25:04.227Z,3.57
2023-04-02T17:29:09.439Z,4.10
2023-04-02T17:33:17.232Z,4.20
2023-04-02T17:37:23.395Z,5.13
2023-04-02T17:41:52.538Z,5.47
2023-04-02T17:46:19.882Z,4.83
2023-04-02T17:50:48.734Z,5.03
2023-04-02T17:55:15.217Z,4.57
2023-04-02T17:59:36.936Z,5.10
2023-04-02T18:03:57.560Z,4.97
2023-04-02T18:08:14.639Z,4.27
2023-04-02T18:12:53.534Z,4.20
2023-04-02T18:17:01.090Z,4.10
2023-04-02T18:21:43.038Z,7.20
2023-04-02T18:26:03.074Z,5.13
2023-04-02T18:30:17.831Z,15.10
2023-04-02T18:34:44.918Z,5.97
2023-04-02T18:39:16.387Z,4.40
2023-04-02T18:43:43.376Z,4.50
2023-04-02T18:48:23.727Z,4.50
2023-04-02T18:52:26.129Z,4.83
2023-04-02T18:56:28.631Z,4.30
2023-04-02T19:00:36.735Z,4.83
2023-04-02T19:04:43.851Z,5.47
2023-04-02T19:08:51.189Z,4.43
2023-04-02T19:12:53.046Z,3.87
2023-04-02T19:17:07.308Z,3.80
2023-04-02T19:21:30.900Z,4.27
2023-04-02T19:25:49.718Z,4.27
2023-04-02T19:30:04.890Z,3.80
2023-04-02T19:34:28.344Z,3.40
2023-04-02T19:38:57.497Z,4.00
2023-04-02T19:42:59.642Z,3.30
2023-04-02T19:47:01.617Z,3.60
2023-04-02T19:51:03.612Z,3.33
2023-04-02T19:55:05.889Z,3.80
2023-04-02T19:59:17.684Z,3.70
2023-04-02T20:03:20.613Z,3.07
2023-04-02T20:07:22.781Z,3.83
2023-04-02T20:11:26.550Z,5.57
2023-04-02T20:15:28.644Z,5.73
2023-04-02T20:19:30.588Z,6.00
2023-04-02T20:23:33.719Z,6.50
2023-04-02T20:27:35.711Z,6.33
2023-04-02T20:31:37.611Z,3.83
2023-04-02T20:35:39.625Z,3.50
2023-04-02T20:39:41.505Z,3.60
2023-04-02T20:43:43.481Z,3.30
2023-04-02T20:47:48.511Z,3.70
2023-04-02T20:51:50.550Z,3.87
2023-04-02T20:55:52.446Z,3.47
2023-04-02T20:59:54.660Z,4.23
2023-04-02T21:04:01.661Z,4.00
2023-04-02T21:08:03.670Z,4.07
2023-04-02T21:12:05.946Z,4.10
2023-04-02T21:16:15.021Z,4.10
2023-04-02T21:20:17.007Z,3.60
2023-04-02T21:24:18.843Z,4.00
2023-04-02T21:28:20.741Z,4.10
2023-04-02T21:32:22.841Z,4.00
2023-04-02T21:36:35.036Z,4.00
2023-04-02T21:40:36.797Z,4.30
2023-04-02T21:44:38.548Z,4.50
2023-04-02T21:48:41.843Z,4.10
2023-04-02T21:52:43.727Z,4.20
2023-04-02T21:56:46.893Z,4.23
2023-04-02T22:00:48.800Z,5.07
2023-04-02T22:04:51.971Z,4.40
2023-04-02T22:09:01.966Z,5.07
2023-04-02T22:13:03.843Z,4.33
2023-04-02T22:17:06.084Z,4.40
2023-04-02T22:21:08.801Z,4.40
2023-04-02T22:25:10.917Z,4.37
2023-04-02T22:29:12.775Z,4.43
2023-04-02T22:33:16.131Z,4.57
2023-04-02T22:37:18.137Z,4.57
2023-04-02T22:41:25.540Z,4.60
2023-04-02T22:45:27.406Z,4.37
2023-04-02T22:49:29.396Z,4.50
2023-04-02T22:53:31.578Z,4.30
2023-04-02T22:57:33.972Z,4.60
2023-04-02T23:01:36.806Z,4.47
2023-04-02T23:05:38.747Z,4.30
2023-04-02T23:09:41.021Z,4.47
2023-04-02T23:13:43.794Z,4.13
2023-04-02T23:17:45.903Z,4.20
2023-04-02T23:21:48.042Z,3.53
2023-04-02T23:25:49.940Z,4.40
2023-04-02T23:29:51.891Z,4.40
2023-04-02T23:33:54.591Z,4.20
2023-04-02T23:37:56.694Z,3.97
2023-04-02T23:41:59.190Z,4.07
2023-04-02T23:46:01.127Z,3.60
2023-04-02T23:50:03.266Z,4.00
2023-04-02T23:54:05.311Z,3.90
2023-04-02T23:58:07.284Z,3.47
